sensor_id;sensor_type;location;lat;lon;timestamp;pressure;altitude;pressure_sealevel;temperature;humidity
20003;BME280;10162;41.600;23.806;2023-04-28T00:08:29;95287.59;;;5.04;100.00
20003;BME280;10162;41.600;23.806;2023-04-28T00:12:11;95309.22;;;5.28;100.00
20003;BME280;10162;41.600;23.806;2023-04-28T00:15:07;95280.72;;;4.86;100.00
20003;BME280;10162;41.600;23.806;2023-04-28T00:21:54;95277.84;;;4.97;100.00
20003;BME280;10162;41.600;23.806;2023-04-28T00:27:48;95291.13;;;5.03;100.00
20003;BME280;10162;41.600;23.806;2023-04-28T00:31:12;95304.66;;;4.80;100.00
20003;BME280;10162;41.600;23.806;2023-04-28T00:33:52;95303.16;;;5.12;100.00
20003;BME280;10162;41.600;23.806;2023-04-28T00:44:59;95303.06;;;4.53;100.00
20003;BME280;10162;41.600;23.806;2023-04-28T00:48:04;95285.75;;;4.54;100.00
20003;BME280;10162;41.600;23.806;2023-04-28T00:55:45;95277.09;;;4.37;100.00
20003;BME280;10162;41.600;23.806;2023-04-28T00:58:26;95286.78;;;4.35;100.00
20003;BME280;10162;41.600;23.806;2023-04-28T01:05:02;95311.66;;;4.54;100.00
20003;BME280;10162;41.600;23.806;2023-04-28T01:07:39;95292.97;;;4.42;100.00
20003;BME280;10162;41.600;23.806;2023-04-28T01:14:48;95284.53;;;4.40;100.00
20003;BME280;10162;41.600;23.806;2023-04-28T01:17:31;95298.00;;;4.44;100.00
20003;BME280;10162;41.600;23.806;2023-04-28T01:24:32;95322.66;;;4.30;100.00
20003;BME280;10162;41.600;23.806;2023-04-28T01:27:16;95304.19;;;4.25;100.00
20003;BME280;10162;41.600;23.806;2023-04-28T01:30:37;95318.28;;;3.87;100.00
20003;BME280;10162;41.600;23.806;2023-04-28T01:33:45;95327.06;;;3.77;100.00
20003;BME280;10162;41.600;23.806;2023-04-28T01:37:08;95328.16;;;4.09;100.00
20003;BME280;10162;41.600;23.806;2023-04-28T01:51:41;95318.81;;;4.16;100.00
20003;BME280;10162;41.600;23.806;2023-04-28T02:02:18;95330.94;;;4.16;100.00
20003;BME280;10162;41.600;23.806;2023-04-28T02:13:32;95328.53;;;3.61;100.00
20003;BME280;10162;41.600;23.806;2023-04-28T02:16:10;95345.53;;;3.82;100.00
20003;BME280;10162;41.600;23.806;2023-04-28T02:18:59;95336.09;;;3.90;100.00
20003;BME280;10162;41.600;23.806;2023-04-28T02:29:31;95327.44;;;3.46;100.00
20003;BME280;10162;41.600;23.806;2023-04-28T03:06:57;95380.16;;;3.53;100.00
20003;BME280;10162;41.600;23.806;2023-04-28T04:23:17;95460.44;;;3.79;100.00
20003;BME280;10162;41.600;23.806;2023-04-28T04:26:05;95431.50;;;3.66;100.00
20003;BME280;10162;41.600;23.806;2023-04-28T04:37:39;95476.00;;;4.32;100.00
20003;BME280;10162;41.600;23.806;2023-04-28T04:44:58;95481.66;;;4.89;100.00
20003;BME280;10162;41.600;23.806;2023-04-28T04:51:21;95465.66;;;5.19;100.00
20003;BME280;10162;41.600;23.806;2023-04-28T04:54:29;95496.63;;;5.55;100.00
20003;BME280;10162;41.600;23.806;2023-04-28T04:57:02;95483.91;;;5.69;100.00
20003;BME280;10162;41.600;23.806;2023-04-28T04:59:54;95476.75;;;5.71;100.00
20003;BME280;10162;41.600;23.806;2023-04-28T05:02:34;95480.28;;;5.96;100.00
20003;BME280;10162;41.600;23.806;2023-04-28T05:08:58;95491.78;;;6.60;100.00
20003;BME280;10162;41.600;23.806;2023-04-28T05:11:26;95471.31;;;6.73;100.00
20003;BME280;10162;41.600;23.806;2023-04-28T05:13:54;95490.81;;;6.77;100.00
20003;BME280;10162;41.600;23.806;2023-04-28T05:16:25;95490.81;;;6.93;99.89
20003;BME280;10162;41.600;23.806;2023-04-28T05:19:29;95491.44;;;7.20;98.05
20003;BME280;10162;41.600;23.806;2023-04-28T05:22:54;95508.66;;;7.21;94.55
20003;BME280;10162;41.600;23.806;2023-04-28T05:25:37;95475.97;;;7.34;89.66
20003;BME280;10162;41.600;23.806;2023-04-28T05:28:46;95496.84;;;7.65;88.74
20003;BME280;10162;41.600;23.806;2023-04-28T05:31:40;95491.00;;;7.63;84.59
20003;BME280;10162;41.600;23.806;2023-04-28T05:34:24;95506.53;;;7.87;84.21
20003;BME280;10162;41.600;23.806;2023-04-28T05:37:00;95484.22;;;7.93;85.00
20003;BME280;10162;41.600;23.806;2023-04-28T05:39:28;95509.88;;;8.04;86.19
20003;BME280;10162;41.600;23.806;2023-04-28T05:41:55;95488.31;;;7.87;86.33
20003;BME280;10162;41.600;23.806;2023-04-28T05:44:23;95493.38;;;8.20;87.28
20003;BME280;10162;41.600;23.806;2023-04-28T05:46:49;95505.28;;;8.14;87.80
20003;BME280;10162;41.600;23.806;2023-04-28T05:49:21;95487.00;;;8.31;85.26
20003;BME280;10162;41.600;23.806;2023-04-28T05:51:48;95508.78;;;8.29;83.50
20003;BME280;10162;41.600;23.806;2023-04-28T05:54:14;95501.44;;;8.41;83.49
20003;BME280;10162;41.600;23.806;2023-04-28T05:56:45;95503.13;;;8.57;81.38
20003;BME280;10162;41.600;23.806;2023-04-28T05:59:11;95509.38;;;8.70;83.52
20003;BME280;10162;41.600;23.806;2023-04-28T06:01:37;95496.03;;;9.11;80.76
20003;BME280;10162;41.600;23.806;2023-04-28T06:04:05;95521.59;;;9.30;78.86
20003;BME280;10162;41.600;23.806;2023-04-28T06:06:30;95509.44;;;9.23;77.75
20003;BME280;10162;41.600;23.806;2023-04-28T06:08:59;95511.94;;;9.53;81.19
20003;BME280;10162;41.600;23.806;2023-04-28T06:11:24;95504.88;;;9.25;80.29
20003;BME280;10162;41.600;23.806;2023-04-28T06:13:50;95500.47;;;9.25;78.14
20003;BME280;10162;41.600;23.806;2023-04-28T06:20:12;95500.78;;;9.89;80.31
20003;BME280;10162;41.600;23.806;2023-04-28T06:22:40;95504.66;;;9.78;80.84
20003;BME280;10162;41.600;23.806;2023-04-28T06:25:07;95504.38;;;9.73;80.41
20003;BME280;10162;41.600;23.806;2023-04-28T06:27:43;95512.03;;;9.89;79.34
20003;BME280;10162;41.600;23.806;2023-04-28T06:30:17;95506.81;;;9.89;76.59
20003;BME280;10162;41.600;23.806;2023-04-28T06:32:45;95505.72;;;9.99;79.06
20003;BME280;10162;41.600;23.806;2023-04-28T06:35:11;95506.44;;;10.22;75.75
20003;BME280;10162;41.600;23.806;2023-04-28T06:37:36;95510.16;;;10.49;76.33
20003;BME280;10162;41.600;23.806;2023-04-28T06:40:02;95509.66;;;10.60;75.90
20003;BME280;10162;41.600;23.806;2023-04-28T06:42:30;95507.94;;;10.67;72.68
20003;BME280;10162;41.600;23.806;2023-04-28T06:45:04;95505.34;;;10.67;71.09
20003;BME280;10162;41.600;23.806;2023-04-28T06:47:30;95502.88;;;10.65;71.44
20003;BME280;10162;41.600;23.806;2023-04-28T06:49:55;95491.69;;;10.71;70.81
20003;BME280;10162;41.600;23.806;2023-04-28T06:52:23;95501.22;;;11.00;70.63
20003;BME280;10162;41.600;23.806;2023-04-28T06:54:49;95483.84;;;11.14;67.87
20003;BME280;10162;41.600;23.806;2023-04-28T06:57:17;95503.53;;;10.89;64.82
20003;BME280;10162;41.600;23.806;2023-04-28T06:59:43;95498.91;;;11.33;65.49
20003;BME280;10162;41.600;23.806;2023-04-28T07:02:11;95506.78;;;11.40;63.92
20003;BME280;10162;41.600;23.806;2023-04-28T07:04:37;95501.28;;;11.56;63.63
20003;BME280;10162;41.600;23.806;2023-04-28T07:07:03;95494.63;;;11.04;59.12
20003;BME280;10162;41.600;23.806;2023-04-28T07:09:35;95494.81;;;11.86;64.37
20003;BME280;10162;41.600;23.806;2023-04-28T07:12:02;95487.03;;;11.99;57.68
20003;BME280;10162;41.600;23.806;2023-04-28T07:14:31;95501.50;;;11.33;52.33
20003;BME280;10162;41.600;23.806;2023-04-28T07:16:58;95488.19;;;11.56;55.56
20003;BME280;10162;41.600;23.806;2023-04-28T07:19:23;95489.47;;;12.01;57.96
20003;BME280;10162;41.600;23.806;2023-04-28T07:21:51;95484.38;;;12.34;54.80
20003;BME280;10162;41.600;23.806;2023-04-28T07:24:17;95489.06;;;12.52;53.34
20003;BME280;10162;41.600;23.806;2023-04-28T07:26:43;95475.53;;;12.41;53.54
20003;BME280;10162;41.600;23.806;2023-04-28T07:29:08;95487.91;;;12.20;55.26
20003;BME280;10162;41.600;23.806;2023-04-28T07:31:38;95485.25;;;12.67;53.08
20003;BME280;10162;41.600;23.806;2023-04-28T07:34:04;95480.63;;;12.76;53.82
20003;BME280;10162;41.600;23.806;2023-04-28T07:36:30;95472.50;;;12.51;51.11
20003;BME280;10162;41.600;23.806;2023-04-28T07:38:56;95475.22;;;12.91;56.01
20003;BME280;10162;41.600;23.806;2023-04-28T07:41:25;95471.97;;;12.75;52.13
20003;BME280;10162;41.600;23.806;2023-04-28T07:43:51;95463.94;;;13.16;55.85
20003;BME280;10162;41.600;23.806;2023-04-28T07:46:17;95472.81;;;13.09;53.24
20003;BME280;10162;41.600;23.806;2023-04-28T07:48:42;95466.34;;;12.92;51.88
20003;BME280;10162;41.600;23.806;2023-04-28T07:51:13;95480.81;;;12.68;51.54
20003;BME280;10162;41.600;23.806;2023-04-28T07:53:38;95472.75;;;12.09;50.08
20003;BME280;10162;41.600;23.806;2023-04-28T07:56:04;95477.13;;;11.60;48.88
20003;BME280;10162;41.600;23.806;2023-04-28T07:58:30;95457.28;;;11.79;50.10
20003;BME280;10162;41.600;23.806;2023-04-28T08:00:56;95467.28;;;12.51;53.08
20003;BME280;10162;41.600;23.806;2023-04-28T08:03:21;95437.34;;;12.26;49.82
20003;BME280;10162;41.600;23.806;2023-04-28T08:05:47;95469.31;;;12.62;49.23
20003;BME280;10162;41.600;23.806;2023-04-28T08:08:13;95467.09;;;12.72;49.95
20003;BME280;10162;41.600;23.806;2023-04-28T08:10:40;95463.50;;;12.93;49.54
20003;BME280;10162;41.600;23.806;2023-04-28T08:13:06;95455.00;;;13.04;47.29
20003;BME280;10162;41.600;23.806;2023-04-28T08:15:33;95431.81;;;13.41;46.93
20003;BME280;10162;41.600;23.806;2023-04-28T08:17:59;95444.31;;;13.06;45.48
20003;BME280;10162;41.600;23.806;2023-04-28T08:20:26;95447.75;;;13.00;43.05
20003;BME280;10162;41.600;23.806;2023-04-28T08:22:52;95453.84;;;13.13;45.69
20003;BME280;10162;41.600;23.806;2023-04-28T08:25:17;95445.56;;;13.49;45.92
20003;BME280;10162;41.600;23.806;2023-04-28T08:27:43;95431.97;;;13.72;47.69
20003;BME280;10162;41.600;23.806;2023-04-28T08:30:10;95434.88;;;14.02;47.62
20003;BME280;10162;41.600;23.806;2023-04-28T08:32:38;95451.06;;;13.99;44.47
20003;BME280;10162;41.600;23.806;2023-04-28T08:35:06;95433.97;;;13.70;41.45
20003;BME280;10162;41.600;23.806;2023-04-28T08:37:32;95427.25;;;13.87;42.08
20003;BME280;10162;41.600;23.806;2023-04-28T08:39:58;95429.91;;;14.38;45.18
20003;BME280;10162;41.600;23.806;2023-04-28T08:42:34;95414.66;;;14.02;44.01
20003;BME280;10162;41.600;23.806;2023-04-28T08:45:02;95429.34;;;14.61;45.73
20003;BME280;10162;41.600;23.806;2023-04-28T08:47:36;95427.09;;;14.65;44.44
20003;BME280;10162;41.600;23.806;2023-04-28T08:50:05;95417.81;;;14.62;46.32
20003;BME280;10162;41.600;23.806;2023-04-28T08:52:32;95427.88;;;14.34;42.48
20003;BME280;10162;41.600;23.806;2023-04-28T08:54:59;95414.16;;;13.68;42.91
20003;BME280;10162;41.600;23.806;2023-04-28T08:57:27;95425.38;;;14.52;45.28
20003;BME280;10162;41.600;23.806;2023-04-28T08:59:55;95419.41;;;15.19;42.73
20003;BME280;10162;41.600;23.806;2023-04-28T09:02:48;95427.06;;;15.46;42.66
20003;BME280;10162;41.600;23.806;2023-04-28T09:05:14;95425.03;;;14.73;42.83
20003;BME280;10162;41.600;23.806;2023-04-28T09:07:40;95408.19;;;14.50;42.24
20003;BME280;10162;41.600;23.806;2023-04-28T09:10:20;95416.63;;;15.14;40.43
20003;BME280;10162;41.600;23.806;2023-04-28T09:12:55;95401.13;;;15.24;42.95
20003;BME280;10162;41.600;23.806;2023-04-28T09:15:35;95421.34;;;14.50;39.02
20003;BME280;10162;41.600;23.806;2023-04-28T09:18:05;95410.09;;;14.29;40.51
20003;BME280;10162;41.600;23.806;2023-04-28T09:20:33;95398.50;;;13.02;40.83
20003;BME280;10162;41.600;23.806;2023-04-28T09:23:19;95395.69;;;14.38;41.22
20003;BME280;10162;41.600;23.806;2023-04-28T09:28:24;95383.81;;;15.35;42.87
20003;BME280;10162;41.600;23.806;2023-04-28T09:31:02;95379.19;;;15.30;37.88
20003;BME280;10162;41.600;23.806;2023-04-28T09:33:28;95386.38;;;15.42;40.97
20003;BME280;10162;41.600;23.806;2023-04-28T09:35:54;95380.44;;;15.71;41.07
20003;BME280;10162;41.600;23.806;2023-04-28T09:38:21;95383.63;;;15.12;37.72
20003;BME280;10162;41.600;23.806;2023-04-28T09:41:02;95368.28;;;15.45;37.88
20003;BME280;10162;41.600;23.806;2023-04-28T09:45:57;95356.84;;;15.58;40.75
20003;BME280;10162;41.600;23.806;2023-04-28T09:48:34;95361.91;;;16.07;39.13
20003;BME280;10162;41.600;23.806;2023-04-28T09:51:19;95355.13;;;16.00;37.35
20003;BME280;10162;41.600;23.806;2023-04-28T09:53:47;95348.63;;;15.84;39.97
20003;BME280;10162;41.600;23.806;2023-04-28T09:56:13;95347.59;;;15.85;38.87
20003;BME280;10162;41.600;23.806;2023-04-28T09:58:39;95344.44;;;15.95;38.14
20003;BME280;10162;41.600;23.806;2023-04-28T10:01:32;95347.97;;;16.19;40.17
20003;BME280;10162;41.600;23.806;2023-04-28T10:03:59;95337.91;;;15.97;35.99
20003;BME280;10162;41.600;23.806;2023-04-28T10:06:27;95323.81;;;16.22;38.75
20003;BME280;10162;41.600;23.806;2023-04-28T10:08:57;95330.09;;;15.91;32.81
20003;BME280;10162;41.600;23.806;2023-04-28T10:11:26;95323.88;;;16.45;36.55
20003;BME280;10162;41.600;23.806;2023-04-28T10:13:53;95324.75;;;16.69;36.74
20003;BME280;10162;41.600;23.806;2023-04-28T10:16:19;95313.41;;;16.91;36.43
20003;BME280;10162;41.600;23.806;2023-04-28T10:18:45;95314.06;;;16.99;36.36
20003;BME280;10162;41.600;23.806;2023-04-28T10:21:23;95305.00;;;16.94;36.96
20003;BME280;10162;41.600;23.806;2023-04-28T10:29:16;95297.94;;;16.00;38.02
20003;BME280;10162;41.600;23.806;2023-04-28T10:32:22;95292.72;;;16.65;35.14
20003;BME280;10162;41.600;23.806;2023-04-28T10:34:50;95272.69;;;16.58;35.93
20003;BME280;10162;41.600;23.806;2023-04-28T10:37:17;95287.66;;;16.87;33.13
20003;BME280;10162;41.600;23.806;2023-04-28T10:40:32;95283.56;;;15.96;30.90
20003;BME280;10162;41.600;23.806;2023-04-28T10:42:58;95280.69;;;15.50;34.15
20003;BME280;10162;41.600;23.806;2023-04-28T10:48:21;95269.97;;;17.22;35.25
20003;BME280;10162;41.600;23.806;2023-04-28T10:56:07;95263.50;;;17.42;34.07
20003;BME280;10162;41.600;23.806;2023-04-28T10:58:33;95255.88;;;17.57;32.59
20003;BME280;10162;41.600;23.806;2023-04-28T11:06:42;95245.28;;;17.68;34.88
20003;BME280;10162;41.600;23.806;2023-04-28T11:16:55;95251.28;;;17.92;34.03
20003;BME280;10162;41.600;23.806;2023-04-28T11:19:27;95242.78;;;17.62;29.67
20003;BME280;10162;41.600;23.806;2023-04-28T11:21:56;95238.34;;;17.27;31.04
20003;BME280;10162;41.600;23.806;2023-04-28T11:24:23;95229.25;;;17.47;30.91
20003;BME280;10162;41.600;23.806;2023-04-28T11:26:58;95240.19;;;17.79;34.73
20003;BME280;10162;41.600;23.806;2023-04-28T11:29:36;95232.53;;;17.94;33.56
20003;BME280;10162;41.600;23.806;2023-04-28T11:32:04;95231.75;;;17.93;32.15
20003;BME280;10162;41.600;23.806;2023-04-28T11:34:30;95242.06;;;17.66;34.91
20003;BME280;10162;41.600;23.806;2023-04-28T11:36:57;95236.03;;;17.83;33.88
20003;BME280;10162;41.600;23.806;2023-04-28T11:39:30;95231.38;;;18.35;32.20
20003;BME280;10162;41.600;23.806;2023-04-28T11:41:59;95237.72;;;18.50;31.64
20003;BME280;10162;41.600;23.806;2023-04-28T11:44:29;95224.84;;;18.92;31.65
20003;BME280;10162;41.600;23.806;2023-04-28T11:47:00;95230.91;;;19.10;30.88
20003;BME280;10162;41.600;23.806;2023-04-28T11:49:28;95227.81;;;19.34;30.15
20003;BME280;10162;41.600;23.806;2023-04-28T11:51:56;95219.19;;;18.34;31.01
20003;BME280;10162;41.600;23.806;2023-04-28T11:54:26;95213.78;;;18.12;32.70
20003;BME280;10162;41.600;23.806;2023-04-28T11:56:53;95214.88;;;18.61;32.15
20003;BME280;10162;41.600;23.806;2023-04-28T11:59:33;95213.47;;;18.25;34.42
20003;BME280;10162;41.600;23.806;2023-04-28T12:02:03;95219.03;;;18.57;33.60
20003;BME280;10162;41.600;23.806;2023-04-28T12:07:15;95210.41;;;18.62;32.48
20003;BME280;10162;41.600;23.806;2023-04-28T12:09:43;95206.16;;;19.21;33.23
20003;BME280;10162;41.600;23.806;2023-04-28T12:12:14;95204.25;;;19.16;34.53
20003;BME280;10162;41.600;23.806;2023-04-28T12:14:57;95192.69;;;18.84;31.90
20003;BME280;10162;41.600;23.806;2023-04-28T12:17:28;95188.81;;;18.91;34.14
20003;BME280;10162;41.600;23.806;2023-04-28T12:19:55;95186.22;;;18.58;35.29
20003;BME280;10162;41.600;23.806;2023-04-28T12:22:22;95192.09;;;18.98;35.49
20003;BME280;10162;41.600;23.806;2023-04-28T12:25:05;95184.25;;;18.87;33.01
20003;BME280;10162;41.600;23.806;2023-04-28T12:27:34;95180.81;;;19.08;34.18
20003;BME280;10162;41.600;23.806;2023-04-28T12:30:00;95179.53;;;19.32;32.75
20003;BME280;10162;41.600;23.806;2023-04-28T12:32:37;95169.84;;;18.99;32.35
20003;BME280;10162;41.600;23.806;2023-04-28T12:35:04;95161.34;;;19.41;33.66
20003;BME280;10162;41.600;23.806;2023-04-28T12:37:30;95154.81;;;19.49;33.58
20003;BME280;10162;41.600;23.806;2023-04-28T12:39:59;95160.22;;;19.15;32.17
20003;BME280;10162;41.600;23.806;2023-04-28T12:42:27;95160.63;;;19.24;33.25
20003;BME280;10162;41.600;23.806;2023-04-28T12:44:54;95157.09;;;19.18;34.77
20003;BME280;10162;41.600;23.806;2023-04-28T12:47:20;95141.81;;;19.47;32.68
20003;BME280;10162;41.600;23.806;2023-04-28T12:49:45;95144.06;;;19.60;32.42
20003;BME280;10162;41.600;23.806;2023-04-28T12:52:14;95139.28;;;19.35;30.75
20003;BME280;10162;41.600;23.806;2023-04-28T12:54:39;95144.31;;;19.86;31.42
20003;BME280;10162;41.600;23.806;2023-04-28T12:57:16;95143.91;;;19.99;29.83
20003;BME280;10162;41.600;23.806;2023-04-28T12:59:46;95136.31;;;19.80;29.69
20003;BME280;10162;41.600;23.806;2023-04-28T13:02:17;95135.63;;;19.95;32.12
20003;BME280;10162;41.600;23.806;2023-04-28T13:04:43;95133.69;;;20.17;31.70
20003;BME280;10162;41.600;23.806;2023-04-28T13:07:12;95130.06;;;20.29;29.72
20003;BME280;10162;41.600;23.806;2023-04-28T13:09:38;95141.81;;;20.80;31.11
20003;BME280;10162;41.600;23.806;2023-04-28T13:12:04;95124.13;;;20.48;29.50
20003;BME280;10162;41.600;23.806;2023-04-28T13:14:30;95130.75;;;20.98;28.73
20003;BME280;10162;41.600;23.806;2023-04-28T13:16:56;95126.91;;;20.74;27.91
20003;BME280;10162;41.600;23.806;2023-04-28T13:19:22;95117.56;;;20.61;29.39
20003;BME280;10162;41.600;23.806;2023-04-28T13:21:48;95119.41;;;21.13;29.15
20003;BME280;10162;41.600;23.806;2023-04-28T13:24:14;95106.97;;;20.66;29.67
20003;BME280;10162;41.600;23.806;2023-04-28T13:26:41;95118.66;;;20.70;28.22
20003;BME280;10162;41.600;23.806;2023-04-28T13:29:08;95109.84;;;20.28;27.06
20003;BME280;10162;41.600;23.806;2023-04-28T13:31:39;95129.00;;;20.67;26.72
20003;BME280;10162;41.600;23.806;2023-04-28T13:34:04;95099.25;;;21.22;27.34
20003;BME280;10162;41.600;23.806;2023-04-28T13:36:41;95112.63;;;21.47;26.87
20003;BME280;10162;41.600;23.806;2023-04-28T13:39:07;95126.94;;;21.36;28.03
20003;BME280;10162;41.600;23.806;2023-04-28T13:41:36;95110.25;;;20.88;27.27
20003;BME280;10162;41.600;23.806;2023-04-28T13:44:02;95126.50;;;20.97;28.03
20003;BME280;10162;41.600;23.806;2023-04-28T13:46:28;95094.50;;;21.39;27.90
20003;BME280;10162;41.600;23.806;2023-04-28T13:48:53;95112.16;;;22.16;27.19
20003;BME280;10162;41.600;23.806;2023-04-28T13:51:21;95104.03;;;21.25;26.46
20003;BME280;10162;41.600;23.806;2023-04-28T13:53:48;95101.72;;;22.50;26.78
20003;BME280;10162;41.600;23.806;2023-04-28T13:56:13;95087.38;;;22.36;26.43
20003;BME280;10162;41.600;23.806;2023-04-28T13:58:39;95102.00;;;22.53;25.94
20003;BME280;10162;41.600;23.806;2023-04-28T14:01:05;95100.16;;;21.93;28.42
20003;BME280;10162;41.600;23.806;2023-04-28T14:03:31;95086.31;;;22.16;28.00
20003;BME280;10162;41.600;23.806;2023-04-28T14:06:00;95087.69;;;22.09;25.94
20003;BME280;10162;41.600;23.806;2023-04-28T14:08:26;95089.75;;;21.56;26.02
20003;BME280;10162;41.600;23.806;2023-04-28T14:10:53;95100.88;;;22.95;25.72
20003;BME280;10162;41.600;23.806;2023-04-28T14:13:19;95089.56;;;22.03;26.47
20003;BME280;10162;41.600;23.806;2023-04-28T14:15:45;95117.63;;;22.95;26.47
20003;BME280;10162;41.600;23.806;2023-04-28T14:18:12;95110.69;;;22.99;26.62
20003;BME280;10162;41.600;23.806;2023-04-28T14:20:40;95110.59;;;22.10;27.98
20003;BME280;10162;41.600;23.806;2023-04-28T14:23:06;95099.38;;;22.13;26.59
20003;BME280;10162;41.600;23.806;2023-04-28T14:25:32;95108.38;;;22.78;26.36
20003;BME280;10162;41.600;23.806;2023-04-28T14:27:58;95098.28;;;21.58;26.16
20003;BME280;10162;41.600;23.806;2023-04-28T14:30:24;95102.22;;;21.35;26.32
20003;BME280;10162;41.600;23.806;2023-04-28T14:32:55;95101.25;;;22.02;27.24
20003;BME280;10162;41.600;23.806;2023-04-28T14:35:21;95108.91;;;22.70;25.83
20003;BME280;10162;41.600;23.806;2023-04-28T14:37:46;95093.03;;;23.14;26.22
20003;BME280;10162;41.600;23.806;2023-04-28T14:40:13;95085.28;;;23.22;26.03
20003;BME280;10162;41.600;23.806;2023-04-28T14:42:39;95107.66;;;22.27;26.57
20003;BME280;10162;41.600;23.806;2023-04-28T14:45:08;95095.88;;;21.47;26.84
20003;BME280;10162;41.600;23.806;2023-04-28T14:47:35;95096.91;;;21.51;26.83
20003;BME280;10162;41.600;23.806;2023-04-28T14:50:02;95106.94;;;20.61;27.99
20003;BME280;10162;41.600;23.806;2023-04-28T14:52:28;95092.56;;;20.62;27.94
20003;BME280;10162;41.600;23.806;2023-04-28T14:54:59;95095.34;;;19.98;28.76
20003;BME280;10162;41.600;23.806;2023-04-28T14:57:25;95099.72;;;21.14;26.75
20003;BME280;10162;41.600;23.806;2023-04-28T14:59:52;95114.28;;;22.34;26.65
20003;BME280;10162;41.600;23.806;2023-04-28T15:02:21;95115.81;;;22.71;24.62
20003;BME280;10162;41.600;23.806;2023-04-28T15:04:51;95116.94;;;22.49;26.21
20003;BME280;10162;41.600;23.806;2023-04-28T15:07:17;95123.91;;;22.20;26.93
20003;BME280;10162;41.600;23.806;2023-04-28T15:09:43;95100.69;;;22.36;25.08
20003;BME280;10162;41.600;23.806;2023-04-28T15:12:08;95096.56;;;22.99;24.36
20003;BME280;10162;41.600;23.806;2023-04-28T15:14:34;95121.25;;;21.07;28.29
20003;BME280;10162;41.600;23.806;2023-04-28T15:17:00;95105.09;;;20.61;28.40
20003;BME280;10162;41.600;23.806;2023-04-28T15:19:27;95102.31;;;22.37;27.53
20003;BME280;10162;41.600;23.806;2023-04-28T15:21:54;95113.75;;;22.22;25.47
20003;BME280;10162;41.600;23.806;2023-04-28T15:24:19;95109.47;;;23.46;24.77
20003;BME280;10162;41.600;23.806;2023-04-28T15:26:45;95107.75;;;22.96;26.36
20003;BME280;10162;41.600;23.806;2023-04-28T15:29:12;95100.75;;;23.74;25.36
20003;BME280;10162;41.600;23.806;2023-04-28T15:31:37;95108.28;;;23.62;24.88
20003;BME280;10162;41.600;23.806;2023-04-28T15:34:06;95121.66;;;23.96;25.31
20003;BME280;10162;41.600;23.806;2023-04-28T15:36:41;95100.88;;;23.49;25.23
20003;BME280;10162;41.600;23.806;2023-04-28T15:39:08;95099.91;;;23.25;25.50
20003;BME280;10162;41.600;23.806;2023-04-28T15:41:37;95087.66;;;23.19;24.95
20003;BME280;10162;41.600;23.806;2023-04-28T15:44:04;95091.50;;;22.97;24.86
20003;BME280;10162;41.600;23.806;2023-04-28T15:46:30;95097.22;;;23.30;25.33
20003;BME280;10162;41.600;23.806;2023-04-28T15:48:57;95112.81;;;23.02;26.44
20003;BME280;10162;41.600;23.806;2023-04-28T15:51:25;95095.13;;;22.37;25.50
20003;BME280;10162;41.600;23.806;2023-04-28T15:53:51;95090.81;;;22.72;26.72
20003;BME280;10162;41.600;23.806;2023-04-28T15:56:27;95085.56;;;21.96;25.91
20003;BME280;10162;41.600;23.806;2023-04-28T15:58:53;95096.63;;;21.37;27.10
20003;BME280;10162;41.600;23.806;2023-04-28T16:01:19;95092.88;;;21.23;27.03
20003;BME280;10162;41.600;23.806;2023-04-28T16:03:45;95089.22;;;20.77;26.76
20003;BME280;10162;41.600;23.806;2023-04-28T16:06:11;95092.06;;;20.65;28.03
20003;BME280;10162;41.600;23.806;2023-04-28T16:08:38;95094.56;;;20.03;28.44
20003;BME280;10162;41.600;23.806;2023-04-28T16:11:12;95089.44;;;19.11;29.04
20003;BME280;10162;41.600;23.806;2023-04-28T16:13:43;95085.50;;;18.91;29.86
20003;BME280;10162;41.600;23.806;2023-04-28T16:16:10;95089.69;;;18.27;33.18
20003;BME280;10162;41.600;23.806;2023-04-28T16:18:35;95103.88;;;17.71;37.48
20003;BME280;10162;41.600;23.806;2023-04-28T16:21:01;95108.88;;;17.27;39.81
20003;BME280;10162;41.600;23.806;2023-04-28T16:23:28;95112.50;;;17.10;40.12
20003;BME280;10162;41.600;23.806;2023-04-28T16:25:54;95119.97;;;16.73;40.41
20003;BME280;10162;41.600;23.806;2023-04-28T16:28:19;95103.34;;;16.37;42.48
20003;BME280;10162;41.600;23.806;2023-04-28T16:30:49;95102.53;;;16.13;43.97
20003;BME280;10162;41.600;23.806;2023-04-28T16:33:15;95083.53;;;16.00;43.72
20003;BME280;10162;41.600;23.806;2023-04-28T16:35:41;95120.09;;;15.96;44.94
20003;BME280;10162;41.600;23.806;2023-04-28T16:38:07;95112.53;;;15.88;46.00
20003;BME280;10162;41.600;23.806;2023-04-28T16:40:33;95119.91;;;15.68;46.60
20003;BME280;10162;41.600;23.806;2023-04-28T16:42:59;95130.97;;;15.47;48.05
20003;BME280;10162;41.600;23.806;2023-04-28T16:45:24;95114.97;;;15.30;49.54
20003;BME280;10162;41.600;23.806;2023-04-28T16:47:51;95107.66;;;15.02;50.83
20003;BME280;10162;41.600;23.806;2023-04-28T16:50:17;95112.69;;;15.04;51.47
20003;BME280;10162;41.600;23.806;2023-04-28T16:52:44;95121.34;;;14.93;52.32
20003;BME280;10162;41.600;23.806;2023-04-28T16:55:10;95129.03;;;14.76;53.14
20003;BME280;10162;41.600;23.806;2023-04-28T16:57:37;95115.78;;;14.64;53.51
20003;BME280;10162;41.600;23.806;2023-04-28T17:00:04;95129.03;;;14.15;55.66
20003;BME280;10162;41.600;23.806;2023-04-28T17:06:25;95122.91;;;13.96;57.20
20003;BME280;10162;41.600;23.806;2023-04-28T17:08:53;95148.84;;;14.17;56.84
20003;BME280;10162;41.600;23.806;2023-04-28T17:11:48;95159.78;;;14.14;57.37
20003;BME280;10162;41.600;23.806;2023-04-28T17:14:16;95148.78;;;13.99;57.68
20003;BME280;10162;41.600;23.806;2023-04-28T17:16:42;95168.84;;;13.93;58.26
20003;BME280;10162;41.600;23.806;2023-04-28T17:19:10;95151.56;;;13.79;59.27
20003;BME280;10162;41.600;23.806;2023-04-28T17:25:04;95172.09;;;13.64;59.81